Time;durP1;ratioP1;P1;durP2;ratioP2;P2;SDS_P1;SDS_P2;PMS_P1;PMS_P2;Temp;Humidity;BMP_temperature;BMP_pressure;BME280_temperature;BME280_humidity;BME280_pressure;Samples;Min_cycle;Max_cycle;Signal;HPM_P1;HPM_P2
2022/03/15 08:11:07;;;;;;;8.35;6.00;;;;;;;;;;4819165;29;20053;-82
2022/03/15 08:13:35;;;;;;;5.90;5.30;;;;;;;;;;4814015;29;20057;-83
2022/03/15 08:16:04;;;;;;;6.15;5.22;;;;;;;;;;4832285;29;20062;-85
2022/03/15 08:18:35;;;;;;;8.55;7.72;;;;;;;;;;4807467;29;20057;-82
2022/03/15 08:21:03;;;;;;;10.73;9.23;;;;;;;;;;4837878;29;20046;-85
2022/03/15 08:23:31;;;;;;;6.93;6.05;;;;;;;;;;4821708;29;20073;-82
2022/03/15 08:25:59;;;;;;;5.63;4.65;;;;;;;;;;4805629;29;20058;-82
2022/03/15 08:28:27;;;;;;;9.07;5.55;;;;;;;;;;4839411;29;20415;-82
2022/03/15 08:30:55;;;;;;;7.53;5.18;;;;;;;;;;4822322;29;20484;-82
2022/03/15 08:33:23;;;;;;;7.95;5.32;;;;;;;;;;4835659;29;20037;-82
2022/03/15 08:35:52;;;;;;;6.10;5.57;;;;;;;;;;4832744;29;20046;-82
2022/03/15 08:38:20;;;;;;;6.25;5.30;;;;;;;;;;4806105;29;20042;-80
2022/03/15 08:40:49;;;;;;;6.25;5.25;;;;;;;;;;4836278;29;20050;-80
2022/03/15 08:43:17;;;;;;;11.20;8.13;;;;;;;;;;4836456;29;20483;-80
2022/03/15 08:45:45;;;;;;;10.00;5.07;;;;;;;;;;4844144;29;20054;-84
2022/03/15 08:48:13;;;;;;;8.52;5.75;;;;;;;;;;4829297;29;20836;-84
2022/03/15 08:50:41;;;;;;;6.65;5.20;;;;;;;;;;4822830;29;20438;-85
2022/03/15 08:53:09;;;;;;;5.53;4.45;;;;;;;;;;4794858;29;20053;-85
2022/03/15 08:55:37;;;;;;;6.22;5.50;;;;;;;;;;4826080;29;20686;-84
2022/03/15 08:58:05;;;;;;;9.00;5.82;;;;;;;;;;4810423;29;20424;-84
2022/03/15 09:00:33;;;;;;;14.30;6.80;;;;;;;;;;4816404;29;20051;-84
2022/03/15 09:03:02;;;;;;;5.50;4.95;;;;;;;;;;4808897;29;20050;-85
2022/03/15 09:05:30;;;;;;;6.20;5.60;;;;;;;;;;4822870;29;20504;-85
2022/03/15 09:07:58;;;;;;;7.88;5.18;;;;;;;;;;4808052;29;20058;-86
2022/03/15 09:10:26;;;;;;;7.60;5.57;;;;;;;;;;4817323;29;20058;-85
2022/03/15 09:12:54;;;;;;;10.02;5.95;;;;;;;;;;4810311;29;20054;-84
2022/03/15 09:15:23;;;;;;;9.27;5.78;;;;;;;;;;4840659;29;20057;-86
2022/03/15 09:17:51;;;;;;;14.23;6.68;;;;;;;;;;4809876;29;20050;-86
2022/03/15 09:20:24;;;;;;;9.18;6.10;;;;;;;;;;4823410;29;20050;-86
2022/03/15 09:22:53;;;;;;;9.88;7.85;;;;;;;;;;4823043;29;20051;-86
2022/03/15 09:25:23;;;;;;;6.70;5.25;;;;;;;;;;4823315;29;20061;-85
2022/03/15 09:27:51;;;;;;;7.90;5.80;;;;;;;;;;4807720;29;20046;-85
2022/03/15 09:30:19;;;;;;;6.18;4.53;;;;;;;;;;4807536;29;20058;-86
2022/03/15 09:32:47;;;;;;;7.72;5.57;;;;;;;;;;4822805;29;20049;-86
2022/03/15 09:35:16;;;;;;;5.47;4.78;;;;;;;;;;4824132;29;20047;-86
2022/03/15 09:37:47;;;;;;;9.15;6.10;;;;;;;;;;4822378;29;20409;-86
2022/03/15 09:40:17;;;;;;;8.18;6.47;;;;;;;;;;4823288;29;20058;-86
2022/03/15 09:42:48;;;;;;;8.43;5.22;;;;;;;;;;4792394;29;20413;-86
2022/03/15 09:45:17;;;;;;;;;;;;;;;;;;4823995;29;20417;-85
2022/03/15 09:47:46;;;;;;;7.25;6.60;;;;;;;;;;4824025;29;19924;-86
2022/03/15 09:50:14;;;;;;;7.93;7.13;;;;;;;;;;4822214;29;20409;-86
2022/03/15 09:52:43;;;;;;;13.48;7.50;;;;;;;;;;4823701;29;20054;-85
2022/03/15 09:55:11;;;;;;;7.03;6.32;;;;;;;;;;4821206;29;20050;-87
2022/03/15 09:57:42;;;;;;;6.78;5.20;;;;;;;;;;4823178;29;20058;-86
2022/03/15 10:00:15;;;;;;;8.75;5.60;;;;;;;;;;4822458;29;20065;-85
2022/03/15 10:02:46;;;;;;;8.60;5.05;;;;;;;;;;4824028;29;20054;-86
2022/03/15 10:05:14;;;;;;;8.85;5.05;;;;;;;;;;4823364;29;20080;-86
2022/03/15 10:07:42;;;;;;;6.10;5.45;;;;;;;;;;4807001;29;20401;-86
2022/03/15 10:10:12;;;;;;;8.02;6.25;;;;;;;;;;4806450;29;20061;-87
2022/03/15 10:12:39;;;;;;;7.40;3.92;;;;;;;;;;4823046;29;20527;-86
2022/03/15 10:15:15;;;;;;;6.75;4.97;;;;;;;;;;4823702;29;20092;-86
2022/03/15 10:17:47;;;;;;;6.35;4.85;;;;;;;;;;4806906;29;20046;-86
2022/03/15 10:20:25;;;;;;;6.30;4.53;;;;;;;;;;4822908;29;20046;-86
2022/03/15 10:23:00;;;;;;;5.82;5.10;;;;;;;;;;4792430;29;20069;-86
2022/03/15 10:25:34;;;;;;;8.50;5.50;;;;;;;;;;4806350;29;20055;-86
2022/03/15 10:28:06;;;;;;;9.63;6.75;;;;;;;;;;4791491;29;20062;-87
2022/03/15 10:30:35;;;;;;;5.93;5.30;;;;;;;;;;4815325;29;20081;-86
2022/03/15 10:33:03;;;;;;;3.80;2.97;;;;;;;;;;4825053;29;20061;-85
2022/03/15 10:35:36;;;;;;;8.25;4.05;;;;;;;;;;4822030;29;20088;-87
2022/03/15 10:38:06;;;;;;;8.38;4.15;;;;;;;;;;4818448;29;20064;-86
2022/03/15 10:40:45;;;;;;;4.75;3.58;;;;;;;;;;4822551;29;20054;-86
2022/03/15 10:43:23;;;;;;;7.45;4.72;;;;;;;;;;4804299;29;20058;-87
2022/03/15 10:45:57;;;;;;;13.73;5.75;;;;;;;;;;4829330;29;20046;-84
2022/03/15 10:48:29;;;;;;;4.47;4.03;;;;;;;;;;4806230;29;20053;-84
2022/03/15 10:50:58;;;;;;;4.68;3.15;;;;;;;;;;4841211;29;20496;-85
2022/03/15 10:53:37;;;;;;;4.55;3.42;;;;;;;;;;4808842;29;20038;-87
2022/03/15 10:56:09;;;;;;;6.82;4.60;;;;;;;;;;4811883;29;20061;-87
2022/03/15 10:58:55;;;;;;;16.83;5.07;;;;;;;;;;4808808;29;20082;-87
2022/03/15 11:01:24;;;;;;;5.45;4.18;;;;;;;;;;4794357;29;20417;-86
2022/03/15 11:04:00;;;;;;;4.40;3.97;;;;;;;;;;4824299;29;20050;-85
2022/03/15 11:06:32;;;;;;;6.78;5.20;;;;;;;;;;4808018;29;20054;-87
2022/03/15 11:09:01;;;;;;;4.57;3.75;;;;;;;;;;4810177;29;20396;-83
2022/03/15 11:11:31;;;;;;;3.83;3.53;;;;;;;;;;4822217;29;20054;-86
2022/03/15 11:14:02;;;;;;;12.38;3.03;;;;;;;;;;4798420;29;20505;-85
2022/03/15 11:16:31;;;;;;;7.20;3.60;;;;;;;;;;4805642;29;20475;-85
2022/03/15 11:19:00;;;;;;;4.53;4.13;;;;;;;;;;4799407;29;20065;-86
2022/03/15 11:21:31;;;;;;;5.55;4.00;;;;;;;;;;4789800;29;20053;-86
2022/03/15 11:24:00;;;;;;;4.47;4.07;;;;;;;;;;4790497;29;20066;-85
2022/03/15 11:26:33;;;;;;;7.82;5.13;;;;;;;;;;4806243;29;20043;-88
2022/03/15 11:29:02;;;;;;;4.72;3.17;;;;;;;;;;4806331;29;20050;-88
2022/03/15 11:31:31;;;;;;;7.57;3.47;;;;;;;;;;4791682;29;20051;-87
2022/03/15 11:34:01;;;;;;;3.90;3.50;;;;;;;;;;4790553;29;20054;-88
2022/03/15 11:36:29;;;;;;;7.50;4.68;;;;;;;;;;4791298;29;20058;-87
2022/03/15 11:38:58;;;;;;;6.28;3.53;;;;;;;;;;4806456;29;20058;-88
2022/03/15 11:41:28;;;;;;;6.35;3.47;;;;;;;;;;4805780;29;20057;-88
2022/03/15 11:44:14;;;;;;;9.52;4.65;;;;;;;;;;4790414;29;20062;-88
2022/03/15 11:46:46;;;;;;;5.15;3.88;;;;;;;;;;4791374;29;20061;-87
2022/03/15 11:49:23;;;;;;;8.80;5.00;;;;;;;;;;4790942;29;20050;-88
2022/03/15 11:51:52;;;;;;;4.97;4.30;;;;;;;;;;4790989;29;20059;-87
2022/03/15 11:54:20;;;;;;;5.15;4.43;;;;;;;;;;4791034;29;20062;-88
2022/03/15 11:56:49;;;;;;;9.52;3.78;;;;;;;;;;4805877;29;20065;-87
2022/03/15 11:59:20;;;;;;;11.82;4.93;;;;;;;;;;4824265;29;20403;-88
2022/03/15 12:01:51;;;;;;;4.25;3.30;;;;;;;;;;4808731;29;20412;-81
2022/03/15 12:04:24;;;;;;;5.30;3.92;;;;;;;;;;4808876;29;20497;-88
2022/03/15 12:06:55;;;;;;;6.15;4.50;;;;;;;;;;4794045;29;20400;-87
2022/03/15 12:09:26;;;;;;;5.63;4.50;;;;;;;;;;4823770;29;20056;-89
2022/03/15 12:12:10;;;;;;;5.38;4.80;;;;;;;;;;4822870;29;20066;-82
2022/03/15 12:15:12;;;;;;;8.88;4.90;;;;;;;;;;4823679;29;20080;-88
2022/03/15 12:17:40;;;;;;;6.15;5.53;;;;;;;;;;4828292;29;20070;-80
2022/03/15 12:20:13;;;;;;;7.03;5.70;;;;;;;;;;4818479;29;20131;-88
2022/03/15 12:22:58;;;;;;;7.03;6.35;;;;;;;;;;4819564;29;20061;-84
2022/03/15 12:25:43;;;;;;;7.32;6.75;;;;;;;;;;4788428;29;20051;-88
2022/03/15 12:28:11;;;;;;;9.52;8.00;;;;;;;;;;4807684;29;20442;-83
2022/03/15 12:30:51;;;;;;;7.57;6.22;;;;;;;;;;4808730;29;20187;-83
2022/03/15 12:33:26;;;;;;;6.85;5.32;;;;;;;;;;4785050;29;20047;-80
2022/03/15 12:35:58;;;;;;;30.83;8.20;;;;;;;;;;4793878;29;20062;-79
2022/03/15 12:38:34;;;;;;;13.05;6.78;;;;;;;;;;4800488;29;20055;-81
2022/03/15 12:41:03;;;;;;;8.43;6.35;;;;;;;;;;4784384;29;20099;-82
2022/03/15 12:43:34;;;;;;;11.98;6.40;;;;;;;;;;4799653;29;20693;-80
2022/03/15 12:46:05;;;;;;;6.85;4.72;;;;;;;;;;4804332;29;20046;-79
2022/03/15 12:48:34;;;;;;;6.90;6.20;;;;;;;;;;4823206;29;20041;-80
2022/03/15 12:51:03;;;;;;;7.75;5.03;;;;;;;;;;4814373;29;20049;-79
2022/03/15 12:53:42;;;;;;;9.13;5.90;;;;;;;;;;4813111;29;20058;-79
2022/03/15 12:56:10;;;;;;;4.88;4.43;;;;;;;;;;4828406;29;20046;-80
2022/03/15 12:58:39;;;;;;;11.15;6.25;;;;;;;;;;4801441;29;20471;-80
2022/03/15 13:01:08;;;;;;;7.50;6.65;;;;;;;;;;4838105;29;20050;-80
2022/03/15 13:03:38;;;;;;;5.82;5.22;;;;;;;;;;4839152;29;20046;-79
2022/03/15 13:06:21;;;;;;;5.78;5.10;;;;;;;;;;4822634;29;20065;-82
2022/03/15 13:08:52;;;;;;;7.43;5.43;;;;;;;;;;4837267;29;20092;-81
2022/03/15 13:11:27;;;;;;;7.20;5.18;;;;;;;;;;4839701;29;20065;-82
2022/03/15 13:13:56;;;;;;;7.18;4.95;;;;;;;;;;4821867;29;20058;-82
2022/03/15 13:16:25;;;;;;;17.60;6.00;;;;;;;;;;4805479;29;20046;-81
2022/03/15 13:18:53;;;;;;;6.68;6.00;;;;;;;;;;4828517;29;20425;-80
2022/03/15 13:21:29;;;;;;;7.57;6.10;;;;;;;;;;4808795;29;20062;-79
2022/03/15 13:24:08;;;;;;;12.60;6.32;;;;;;;;;;4820176;29;20405;-79
2022/03/15 13:26:40;;;;;;;7.93;6.25;;;;;;;;;;4820286;29;20058;-80
2022/03/15 13:29:13;;;;;;;9.32;5.60;;;;;;;;;;4821112;29;20046;-79
2022/03/15 13:31:41;;;;;;;12.48;7.68;;;;;;;;;;4823848;29;20066;-79
2022/03/15 13:34:13;;;;;;;6.45;5.68;;;;;;;;;;4823744;29;20050;-79
2022/03/15 13:36:41;;;;;;;6.78;6.10;;;;;;;;;;4822745;29;20054;-80
2022/03/15 13:39:11;;;;;;;5.72;5.20;;;;;;;;;;4824042;29;20053;-79
2022/03/15 13:41:41;;;;;;;8.73;5.75;;;;;;;;;;4823070;29;20528;-80
2022/03/15 13:44:15;;;;;;;8.35;5.93;;;;;;;;;;4823015;29;20057;-79
2022/03/15 13:46:44;;;;;;;9.43;7.45;;;;;;;;;;4827072;29;20046;-79
2022/03/15 13:49:31;;;;;;;5.30;4.63;;;;;;;;;;4808826;29;20050;-79
2022/03/15 13:52:04;;;;;;;8.73;6.07;;;;;;;;;;4823361;29;20053;-80
2022/03/15 13:54:32;;;;;;;8.63;5.88;;;;;;;;;;4792248;29;20057;-80
2022/03/15 13:57:04;;;;;;;6.93;4.75;;;;;;;;;;4822729;29;20772;-80
2022/03/15 13:59:32;;;;;;;6.30;4.90;;;;;;;;;;4829118;29;20065;-81
2022/03/15 14:02:05;;;;;;;7.85;4.22;;;;;;;;;;4832342;29;20050;-81
2022/03/15 14:04:34;;;;;;;12.43;5.32;;;;;;;;;;4815619;29;20046;-79
2022/03/15 14:07:03;;;;;;;7.30;5.32;;;;;;;;;;4822761;29;20388;-80
2022/03/15 14:09:33;;;;;;;6.15;5.47;;;;;;;;;;4835743;29;20074;-80
2022/03/15 14:12:11;;;;;;;7.32;6.60;;;;;;;;;;4839476;29;20061;-79
2022/03/15 14:14:49;;;;;;;10.63;6.03;;;;;;;;;;4821794;29;20396;-79
2022/03/15 14:17:19;;;;;;;6.75;5.53;;;;;;;;;;4840308;29;20386;-79
2022/03/15 14:19:51;;;;;;;7.68;5.57;;;;;;;;;;4840460;29;20046;-80
2022/03/15 14:22:22;;;;;;;6.45;5.85;;;;;;;;;;4823429;29;20439;-81
2022/03/15 14:24:55;;;;;;;11.70;6.85;;;;;;;;;;4839261;29;20046;-80
2022/03/15 14:27:25;;;;;;;6.53;5.82;;;;;;;;;;4840923;29;20074;-80
2022/03/15 14:29:54;;;;;;;7.20;6.43;;;;;;;;;;4838231;29;20053;-81
2022/03/15 14:32:23;;;;;;;9.73;6.97;;;;;;;;;;4840014;29;20050;-81
2022/03/15 14:35:02;;;;;;;7.55;6.47;;;;;;;;;;4837802;29;20042;-81
2022/03/15 14:37:31;;;;;;;8.60;6.68;;;;;;;;;;4839884;29;20436;-81
2022/03/15 14:40:04;;;;;;;6.97;6.28;;;;;;;;;;4820441;29;20046;-79
2022/03/15 14:42:35;;;;;;;8.70;6.60;;;;;;;;;;4840010;29;20046;-81
2022/03/15 14:45:09;;;;;;;7.88;5.45;;;;;;;;;;4823896;29;20495;-80
2022/03/15 14:47:38;;;;;;;10.82;6.13;;;;;;;;;;4831166;29;20046;-79
2022/03/15 14:50:08;;;;;;;8.63;6.78;;;;;;;;;;4828179;29;20042;-79
2022/03/15 14:52:52;;;;;;;10.90;6.28;;;;;;;;;;4816744;29;20046;-79
2022/03/15 14:55:30;;;;;;;10.02;7.68;;;;;;;;;;4837094;29;20057;-81
2022/03/15 14:57:58;;;;;;;8.90;6.22;;;;;;;;;;4817221;29;20836;-81
2022/03/15 15:00:27;;;;;;;11.77;6.07;;;;;;;;;;4834265;29;20822;-80
2022/03/15 15:02:57;;;;;;;8.52;6.30;;;;;;;;;;4793436;29;20054;-80
2022/03/15 15:05:27;;;;;;;6.93;5.82;;;;;;;;;;4819562;29;20483;-80
2022/03/15 15:07:56;;;;;;;9.02;7.25;;;;;;;;;;4836406;29;20496;-80
2022/03/15 15:10:24;;;;;;;12.13;7.88;;;;;;;;;;4834817;29;20065;-82
2022/03/15 15:13:32;;;;;;;22.73;7.22;;;;;;;;;;4821547;29;20061;-88
2022/03/15 15:16:38;;;;;;;9.95;8.35;;;;;;;;;;4809769;29;20508;-88
2022/03/15 15:19:11;;;;;;;10.82;7.45;;;;;;;;;;4806308;29;20062;-88
2022/03/15 15:21:44;;;;;;;12.07;8.27;;;;;;;;;;4778679;29;20061;-89
2022/03/15 15:24:17;;;;;;;9.10;8.07;;;;;;;;;;4795706;29;20062;-88
2022/03/15 15:26:45;;;;;;;;;;;;;;;;;;4791380;29;20402;-88
2022/03/15 15:29:18;;;;;;;10.20;7.20;;;;;;;;;;4814244;29;20383;-84
2022/03/15 15:31:46;;;;;;;14.15;7.32;;;;;;;;;;4819644;29;20092;-87
2022/03/15 15:34:16;;;;;;;7.85;7.13;;;;;;;;;;4802397;29;20054;-87
2022/03/15 15:36:45;;;;;;;11.82;8.00;;;;;;;;;;4790758;29;20489;-88
2022/03/15 15:39:15;;;;;;;13.77;7.85;;;;;;;;;;4838746;29;20061;-88
2022/03/15 15:41:44;;;;;;;8.02;7.18;;;;;;;;;;4806901;29;20061;-88
2022/03/15 15:44:14;;;;;;;9.70;8.73;;;;;;;;;;4806932;29;20567;-88
2022/03/15 15:46:45;;;;;;;8.55;7.55;;;;;;;;;;4838953;29;20054;-88
2022/03/15 15:49:15;;;;;;;17.15;8.35;;;;;;;;;;4811930;29;20065;-87
2022/03/15 15:51:52;;;;;;;20.27;7.90;;;;;;;;;;4802871;29;20066;-86
2022/03/15 15:55:14;;;;;;;13.93;9.50;;;;;;;;;;4802162;29;20500;-88
2022/03/15 15:57:43;;;;;;;11.93;7.95;;;;;;;;;;4802505;29;20058;-85
2022/03/15 16:00:16;;;;;;;9.57;6.85;;;;;;;;;;4817918;29;20048;-88
2022/03/15 16:02:44;;;;;;;14.93;8.88;;;;;;;;;;4821333;29;20058;-86
2022/03/15 16:05:20;;;;;;;11.93;7.57;;;;;;;;;;4820426;29;20057;-88
2022/03/15 16:07:55;;;;;;;15.80;8.23;;;;;;;;;;4820533;29;20057;-88
2022/03/15 16:10:29;;;;;;;7.30;6.55;;;;;;;;;;4820534;29;20555;-89
2022/03/15 16:12:58;;;;;;;18.50;9.18;;;;;;;;;;4836744;29;20054;-88
2022/03/15 16:15:26;;;;;;;13.27;8.05;;;;;;;;;;4830206;29;20619;-89
2022/03/15 16:17:56;;;;;;;13.85;10.20;;;;;;;;;;4823117;29;20057;-88
2022/03/15 16:20:29;;;;;;;10.85;9.73;;;;;;;;;;4817085;29;20050;-89
2022/03/15 16:26:27;;;;;;;10.05;9.05;;;;;;;;;;4792194;29;20062;-88
2022/03/15 16:29:27;;;;;;;11.68;7.57;;;;;;;;;;4786844;29;20073;-88
2022/03/15 16:33:04;;;;;;;11.55;9.70;;;;;;;;;;4813391;29;20050;-89
2022/03/15 16:36:12;;;;;;;13.02;9.07;;;;;;;;;;4770458;29;20062;-88
2022/03/15 16:38:41;;;;;;;13.82;10.02;;;;;;;;;;4784329;29;20058;-89
2022/03/15 16:49:19;;;;;;;12.25;9.98;;;;;;;;;;5162757;23;20057;-89
2022/03/15 16:52:43;;;;;;;13.05;7.93;;;;;;;;;;4813290;29;20066;-89
2022/03/15 16:55:12;;;;;;;12.25;8.05;;;;;;;;;;4808669;29;20081;-91
2022/03/15 16:57:42;;;;;;;10.60;9.55;;;;;;;;;;4803955;29;20057;-90
2022/03/15 17:00:36;;;;;;;21.00;10.18;;;;;;;;;;4830523;24;20064;31
2022/03/15 17:03:11;;;;;;;14.98;10.07;;;;;;;;;;4771897;29;20059;-89
2022/03/15 17:05:46;;;;;;;11.45;9.30;;;;;;;;;;4772277;29;20437;-89
2022/03/15 17:08:39;;;;;;;12.25;10.43;;;;;;;;;;4792033;29;20046;-91
2022/03/15 17:11:11;;;;;;;13.52;10.23;;;;;;;;;;4774839;29;20066;-89
2022/03/15 17:13:52;;;;;;;14.10;10.00;;;;;;;;;;4769791;29;20058;-89
2022/03/15 17:17:13;;;;;;;10.15;8.50;;;;;;;;;;4789249;29;20053;-90
2022/03/15 17:19:50;;;;;;;15.27;9.02;;;;;;;;;;4791440;29;20062;-89
2022/03/15 17:22:22;;;;;;;17.30;10.05;;;;;;;;;;4770975;30;20511;-90
2022/03/15 17:25:02;;;;;;;12.02;10.50;;;;;;;;;;4786356;29;20060;-89
2022/03/15 17:44:02;;;;;;;10.63;9.27;;;;;;;;;;5552155;24;20058;-86
2022/03/15 17:47:20;;;;;;;;;;;;;;;;;;4773050;29;20061;-84
2022/03/15 17:51:57;;;;;;;17.52;11.43;;;;;;;;;;4769464;29;19921;-85
2022/03/15 17:54:47;;;;;;;14.40;7.78;;;;;;;;;;4741894;30;20059;-89
2022/03/15 17:57:20;;;;;;;10.02;8.13;;;;;;;;;;4776204;29;20054;-89
2022/03/15 18:00:01;;;;;;;11.20;9.13;;;;;;;;;;4786328;29;20528;-91
2022/03/15 18:02:41;;;;;;;12.35;9.88;;;;;;;;;;4791829;29;20058;-91
2022/03/15 18:05:10;;;;;;;34.88;10.35;;;;;;;;;;4819756;29;20062;-91
2022/03/15 18:07:48;;;;;;;18.67;11.18;;;;;;;;;;4798204;29;20063;-90
2022/03/15 18:10:47;;;;;;;9.80;8.20;;;;;;;;;;4773242;29;20516;-90
2022/03/15 18:13:22;;;;;;;15.13;12.65;;;;;;;;;;4778184;29;20085;-89
2022/03/15 18:15:57;;;;;;;15.15;10.52;;;;;;;;;;4786968;29;20050;-89
2022/03/15 18:18:40;;;;;;;13.18;10.70;;;;;;;;;;4784542;29;20050;-91
2022/03/15 18:21:14;;;;;;;11.35;8.57;;;;;;;;;;4793475;29;20495;-90
2022/03/15 18:23:43;;;;;;;11.00;9.20;;;;;;;;;;4812343;29;20055;-89
2022/03/15 18:26:18;;;;;;;12.40;9.82;;;;;;;;;;4811199;29;20054;-89
2022/03/15 18:28:48;;;;;;;12.70;8.82;;;;;;;;;;4821790;29;20051;-88
2022/03/15 18:34:21;;;;;;;11.02;8.60;;;;;;;;;;4803742;29;19933;-88
2022/03/15 18:36:52;;;;;;;11.20;8.43;;;;;;;;;;4788713;29;20055;-89
2022/03/15 18:39:20;;;;;;;10.90;9.23;;;;;;;;;;4819028;29;20050;-89
2022/03/15 18:41:50;;;;;;;12.82;9.27;;;;;;;;;;4802479;29;20062;-89
2022/03/15 18:44:20;;;;;;;18.63;9.75;;;;;;;;;;4783949;29;20050;-88
2022/03/15 18:46:50;;;;;;;8.55;7.45;;;;;;;;;;4788898;29;20058;-91
2022/03/15 18:49:24;;;;;;;9.60;8.30;;;;;;;;;;4784709;29;20077;-86
2022/03/15 18:51:52;;;;;;;22.45;10.40;;;;;;;;;;4804931;29;20050;-85
2022/03/15 18:54:22;;;;;;;9.38;7.65;;;;;;;;;;4801660;29;20054;-84
2022/03/15 18:56:51;;;;;;;14.38;7.00;;;;;;;;;;4817790;29;20062;-87
2022/03/15 18:59:20;;;;;;;21.75;8.55;;;;;;;;;;4803462;29;20042;-89
2022/03/15 19:01:49;;;;;;;16.65;8.95;;;;;;;;;;4823251;29;20058;-89
2022/03/15 19:04:19;;;;;;;11.43;7.28;;;;;;;;;;4771096;29;20082;-87
2022/03/15 19:06:51;;;;;;;17.53;7.77;;;;;;;;;;4786799;29;20058;-90
2022/03/15 19:09:19;;;;;;;23.35;9.38;;;;;;;;;;4791189;29;20081;-86
2022/03/15 19:11:48;;;;;;;7.03;6.32;;;;;;;;;;4821323;29;20054;-90
2022/03/15 19:14:18;;;;;;;13.27;9.40;;;;;;;;;;4788866;29;20070;-89
2022/03/15 19:16:46;;;;;;;13.43;8.10;;;;;;;;;;4788829;29;20054;-87
2022/03/15 19:19:20;;;;;;;14.23;8.73;;;;;;;;;;4794085;29;20054;-88
2022/03/15 19:21:54;;;;;;;30.95;9.23;;;;;;;;;;4803735;29;20050;-85
2022/03/15 19:24:22;;;;;;;9.95;8.85;;;;;;;;;;4818529;29;20042;-88
2022/03/15 19:26:50;;;;;;;13.25;7.03;;;;;;;;;;4818556;29;20061;-86
2022/03/15 19:29:18;;;;;;;14.45;7.22;;;;;;;;;;4818354;29;20575;-89
2022/03/15 19:31:46;;;;;;;16.02;10.68;;;;;;;;;;4805728;29;20054;-87
2022/03/15 19:34:15;;;;;;;16.35;8.63;;;;;;;;;;4818245;29;20050;-83
2022/03/15 19:36:44;;;;;;;9.25;7.10;;;;;;;;;;4788781;29;20054;-92
2022/03/15 19:39:12;;;;;;;44.15;9.35;;;;;;;;;;4769835;29;20081;-87
2022/03/15 19:41:40;;;;;;;15.85;8.57;;;;;;;;;;4782979;29;20058;-88
2022/03/15 19:44:08;;;;;;;11.65;9.55;;;;;;;;;;4808023;29;20058;-87
2022/03/15 19:46:36;;;;;;;15.82;8.43;;;;;;;;;;4779239;29;20849;-91
2022/03/15 19:49:09;;;;;;;15.32;9.18;;;;;;;;;;4790426;29;20043;-89
2022/03/15 19:51:45;;;;;;;11.07;7.25;;;;;;;;;;4790676;29;20053;-91
2022/03/15 19:54:14;;;;;;;12.93;9.43;;;;;;;;;;4784867;29;20049;-92
2022/03/15 19:56:42;;;;;;;18.80;8.55;;;;;;;;;;4783308;29;20057;-88
2022/03/15 19:59:15;;;;;;;8.75;7.28;;;;;;;;;;4798273;29;20042;-90
2022/03/15 20:01:46;;;;;;;23.17;12.73;;;;;;;;;;4797038;29;20046;-87
2022/03/15 20:04:20;;;;;;;8.45;6.32;;;;;;;;;;4793125;29;20409;-89
2022/03/15 20:06:55;;;;;;;18.40;8.27;;;;;;;;;;4790508;29;20050;-89
2022/03/15 20:09:26;;;;;;;20.75;7.15;;;;;;;;;;4814257;29;20050;-87
2022/03/15 20:12:01;;;;;;;26.52;7.90;;;;;;;;;;4816301;29;20058;-88
2022/03/15 20:14:32;;;;;;;14.02;5.88;;;;;;;;;;4819800;29;20110;-88
2022/03/15 20:17:02;;;;;;;15.33;6.47;;;;;;;;;;4818050;29;20050;-89
2022/03/15 20:19:30;;;;;;;18.33;6.10;;;;;;;;;;4774429;29;20065;-88
2022/03/15 20:22:00;;;;;;;11.13;8.05;;;;;;;;;;4768557;29;20057;-87
2022/03/15 20:24:30;;;;;;;13.30;5.85;;;;;;;;;;4769809;29;20796;-88
2022/03/15 20:26:58;;;;;;;12.23;7.95;;;;;;;;;;4816921;29;20054;-88
2022/03/15 20:29:37;;;;;;;7.60;6.47;;;;;;;;;;4787671;29;20047;-89
2022/03/15 20:32:16;;;;;;;12.57;8.02;;;;;;;;;;4804079;29;20051;-82
2022/03/15 20:34:45;;;;;;;14.50;7.88;;;;;;;;;;4812141;29;20081;-82
2022/03/15 20:37:13;;;;;;;24.83;9.05;;;;;;;;;;4786403;29;20058;-84
2022/03/15 20:39:41;;;;;;;15.77;5.70;;;;;;;;;;4798217;29;20485;-83
2022/03/15 20:42:16;;;;;;;22.92;7.60;;;;;;;;;;4836515;29;20497;-82
2022/03/15 20:44:47;;;;;;;19.20;7.18;;;;;;;;;;4799270;29;20065;-82
2022/03/15 20:47:16;;;;;;;20.52;8.70;;;;;;;;;;4776470;29;20054;-82
2022/03/15 20:49:44;;;;;;;36.60;8.95;;;;;;;;;;4772653;29;20050;-82
2022/03/15 20:52:17;;;;;;;19.63;7.15;;;;;;;;;;4793335;29;20682;-83
2022/03/15 20:54:46;;;;;;;21.58;7.55;;;;;;;;;;4801201;29;20058;-83
2022/03/15 20:57:15;;;;;;;24.23;6.80;;;;;;;;;;4790264;29;20102;-82
2022/03/15 20:59:48;;;;;;;;;;;;;;;;;;4791076;29;20058;-81
2022/03/15 21:02:16;;;;;;;18.95;5.55;;;;;;;;;;4790536;29;19933;-81
2022/03/15 21:05:02;;;;;;;12.57;6.70;;;;;;;;;;4806118;29;20062;-81
2022/03/15 21:07:36;;;;;;;12.48;6.18;;;;;;;;;;4806376;29;20058;-82
2022/03/15 21:10:05;;;;;;;14.30;5.88;;;;;;;;;;4805630;29;20042;-82
2022/03/15 21:12:38;;;;;;;18.83;6.05;;;;;;;;;;4804875;29;20050;-82
2022/03/15 21:15:06;;;;;;;;;;;;;;;;;;4806713;29;20092;-82
2022/03/15 21:17:34;;;;;;;16.85;6.88;;;;;;;;;;4805604;29;19951;-82
2022/03/15 21:20:04;;;;;;;15.05;5.95;;;;;;;;;;4800508;29;20696;-82
2022/03/15 21:22:34;;;;;;;13.35;8.70;;;;;;;;;;4822179;29;20598;-82
2022/03/15 21:25:05;;;;;;;15.68;7.03;;;;;;;;;;4786920;29;20050;-81
2022/03/15 21:27:34;;;;;;;;;;;;;;;;;;4776503;29;20050;-81
2022/03/15 21:30:01;;;;;;;16.65;4.65;;;;;;;;;;4790558;29;20035;-81
2022/03/15 21:32:30;;;;;;;16.02;6.57;;;;;;;;;;4822128;29;20118;-81
2022/03/15 21:34:58;;;;;;;9.30;7.07;;;;;;;;;;4805527;29;20058;-81
2022/03/15 21:37:26;;;;;;;13.18;7.05;;;;;;;;;;4805506;29;20708;-82
2022/03/15 21:39:57;;;;;;;4.72;4.22;;;;;;;;;;4822064;29;20054;-82
2022/03/15 21:42:27;;;;;;;10.52;6.35;;;;;;;;;;4822139;29;20057;-81
2022/03/15 21:44:58;;;;;;;27.75;7.38;;;;;;;;;;4818491;29;20472;-81
2022/03/15 21:47:27;;;;;;;6.43;4.68;;;;;;;;;;4790804;29;20831;-81
2022/03/15 21:50:00;;;;;;;8.57;7.45;;;;;;;;;;4803912;29;20042;-83
2022/03/15 21:52:31;;;;;;;12.40;5.88;;;;;;;;;;4802288;29;20050;-82
2022/03/15 21:55:08;;;;;;;35.13;6.78;;;;;;;;;;4792832;29;20054;-91
2022/03/15 21:57:41;;;;;;;32.22;6.63;;;;;;;;;;4797757;29;20046;-91
2022/03/15 22:00:12;;;;;;;14.32;5.22;;;;;;;;;;4796604;29;20051;-91
2022/03/15 22:02:46;;;;;;;14.13;6.13;;;;;;;;;;4796828;29;20061;-91
2022/03/15 22:05:22;;;;;;;14.23;6.18;;;;;;;;;;4779632;29;20711;-91
2022/03/15 22:07:51;;;;;;;11.18;6.20;;;;;;;;;;4791565;29;20050;-91
2022/03/15 22:10:19;;;;;;;16.00;5.00;;;;;;;;;;4793325;29;20489;-91
2022/03/15 22:12:48;;;;;;;11.93;7.35;;;;;;;;;;4794683;29;20061;-91
2022/03/15 22:15:20;;;;;;;12.27;5.05;;;;;;;;;;4794398;29;20057;-90
2022/03/15 22:17:55;;;;;;;21.20;6.72;;;;;;;;;;4793943;29;20065;-91
2022/03/15 22:20:24;;;;;;;5.13;4.35;;;;;;;;;;4808032;29;20493;-91
2022/03/15 22:22:57;;;;;;;16.27;5.47;;;;;;;;;;4780141;29;20058;-90
2022/03/15 22:25:56;;;;;;;5.85;4.30;;;;;;;;;;4795332;29;20051;-89
2022/03/15 22:28:32;;;;;;;10.52;6.07;;;;;;;;;;4777647;29;20055;-90
2022/03/15 23:25:31;;;;;;;11.43;5.28;;;;;;;;;;4744358;30;20055;-81
2022/03/15 23:28:44;;;;;;;18.65;8.20;;;;;;;;;;4754004;29;20387;-81
2022/03/15 23:31:19;;;;;;;22.83;8.48;;;;;;;;;;4768070;29;20066;-81
2022/03/15 23:33:47;;;;;;;8.85;5.22;;;;;;;;;;4767586;29;20058;-81
2022/03/15 23:36:15;;;;;;;8.52;5.10;;;;;;;;;;4799082;29;20050;-81
2022/03/15 23:38:43;;;;;;;5.05;4.20;;;;;;;;;;4799477;29;20058;-81
2022/03/15 23:41:11;;;;;;;6.20;4.90;;;;;;;;;;4798616;29;20524;-81
2022/03/15 23:43:39;;;;;;;8.10;5.07;;;;;;;;;;4799493;29;20062;-80
2022/03/15 23:46:07;;;;;;;9.75;4.15;;;;;;;;;;4782358;29;20055;-81
2022/03/15 23:48:35;;;;;;;7.15;3.85;;;;;;;;;;4801236;29;20074;-81
2022/03/15 23:51:03;;;;;;;7.38;4.65;;;;;;;;;;4786239;29;20069;-81
2022/03/15 23:53:31;;;;;;;7.78;4.38;;;;;;;;;;4785609;29;20054;-81
2022/03/15 23:55:58;;;;;;;6.63;5.18;;;;;;;;;;4785050;29;20058;-80
2022/03/15 23:58:29;;;;;;;7.00;5.50;;;;;;;;;;4817441;29;20616;-81
